Herk-de-Stad, Belgium
Current Conditions -  °F | °C
As of 7:25 AM on Tuesday 21 Oct 2014 (Local Time) from EBDT Reporting Station
Broken Clouds Broken Clouds  
Wind Chill: 12°   Ceiling: 5000
Heat Index: 12°   Visibility: 6mi
Dew Point: 10°   Wind: 10mph
Humidity: 88%   Direction: 200°SSW
Pressure: 29.8"   Gusts: NA
Location:  50.94°N, 5.17°E
Report Text: EBDT 210525Z 20009KT 9999 BKN050 12/10 Q1009 BLU
Loading
Personal Weather Stations






























Interactive Weather Map
Tropical Storm Tracking
New forecast layout! Learn more

10-Day Weather Forecast

Advertisements
Track Severe Weather on mobile